Lethbridge, Canada
Current Conditions -  °F | °C
As of 11:00 AM on Saturday 25 Oct 2014 (Local Time) from CYQL Reporting Station
Broken Clouds Broken Clouds  
Wind Chill: 41°   Ceiling: 4200
Heat Index: 45°   Visibility: 40mi
Dew Point: 32°   Wind: 7mph
Humidity: 61%   Direction: 120°ESE
Pressure: 29.91"   Gusts: NA
Location:  49.69°N, 112.83°W
Report Text: CYQL 251700Z 12006KT 40SM BKN042 07/00 A2991 RMK SC7 SLP149
Loading
Personal Weather Stations






























Interactive Weather Map
Tropical Storm Tracking
New forecast layout! Learn more

10-Day Weather Forecast

Advertisements
Track Severe Weather on mobile